createdAt,value
2022-11-18T00:01:16.807Z,99.90
2022-11-18T00:03:45.072Z,99.90
2022-11-18T00:06:17.900Z,99.90
2022-11-18T00:08:44.969Z,99.90
2022-11-18T00:11:37.680Z,99.90
2022-11-18T00:14:22.364Z,99.90
2022-11-18T00:17:04.169Z,99.90
2022-11-18T00:19:33.904Z,99.90
2022-11-18T00:22:01.607Z,99.90
2022-11-18T00:24:29.064Z,99.90
2022-11-18T00:26:56.368Z,99.90
2022-11-18T00:29:26.206Z,99.90
2022-11-18T00:31:53.253Z,99.90
2022-11-18T00:34:20.397Z,99.90
2022-11-18T00:36:48.414Z,99.90
2022-11-18T00:39:18.243Z,99.90
2022-11-18T00:42:04.778Z,99.90
2022-11-18T00:44:32.074Z,99.90
2022-11-18T00:46:59.191Z,99.90
2022-11-18T00:49:26.413Z,99.90
2022-11-18T00:51:53.630Z,99.90
2022-11-18T00:54:21.243Z,99.90
2022-11-18T00:56:48.250Z,99.90
2022-11-18T00:59:15.644Z,99.90
2022-11-18T01:01:43.106Z,99.90
2022-11-18T01:04:10.214Z,99.90
2022-11-18T01:06:37.279Z,99.90
2022-11-18T01:09:04.416Z,99.90
2022-11-18T01:11:49.999Z,99.90
2022-11-18T01:14:17.196Z,99.90
2022-11-18T01:16:44.313Z,99.90
2022-11-18T01:19:11.587Z,99.90
2022-11-18T01:21:38.604Z,99.90
2022-11-18T01:24:06.383Z,99.90
2022-11-18T01:26:33.455Z,99.90
2022-11-18T01:29:00.471Z,99.90
2022-11-18T01:31:27.548Z,99.90
2022-11-18T01:33:54.578Z,99.90
2022-11-18T01:36:24.942Z,99.90
2022-11-18T01:38:52.491Z,99.90
2022-11-18T01:41:21.619Z,99.90
2022-11-18T01:44:03.289Z,99.90
2022-11-18T01:46:32.505Z,99.90
2022-11-18T01:49:13.737Z,99.90
2022-11-18T01:51:53.628Z,99.90
2022-11-18T01:54:27.862Z,99.90
2022-11-18T01:56:59.555Z,99.90
2022-11-18T01:59:30.532Z,99.90
2022-11-18T02:01:59.981Z,99.90
2022-11-18T02:04:28.026Z,99.90
2022-11-18T02:06:56.616Z,99.90
2022-11-18T02:09:23.716Z,99.90
2022-11-18T02:11:51.209Z,99.90
2022-11-18T02:14:23.137Z,99.90
2022-11-18T02:17:24.712Z,99.90
2022-11-18T02:20:39.494Z,99.90
2022-11-18T02:23:39.625Z,99.90
2022-11-18T02:26:54.276Z,99.90
2022-11-18T02:32:04.677Z,99.90
2022-11-18T02:34:51.929Z,99.90
2022-11-18T02:42:58.620Z,99.90
2022-11-18T02:45:27.783Z,99.90
2022-11-18T02:47:56.067Z,99.90
2022-11-18T02:50:26.566Z,99.90
2022-11-18T02:52:58.339Z,99.90
2022-11-18T02:55:29.969Z,99.90
2022-11-18T02:57:58.466Z,99.90
2022-11-18T03:00:25.670Z,99.90
2022-11-18T03:02:52.818Z,99.90
2022-11-18T03:05:51.643Z,99.90
2022-11-18T03:08:26.050Z,99.90
2022-11-18T03:11:11.294Z,99.90
2022-11-18T03:14:06.558Z,99.90
2022-11-18T03:17:09.528Z,99.90
2022-11-18T03:20:15.214Z,99.90
2022-11-18T03:22:54.487Z,99.90
2022-11-18T03:25:37.699Z,99.90
2022-11-18T03:28:31.546Z,99.90
2022-11-18T03:31:20.910Z,99.90
2022-11-18T03:33:54.529Z,99.90
2022-11-18T03:36:24.278Z,99.90
2022-11-18T03:38:55.679Z,99.90
2022-11-18T03:41:25.457Z,99.90
2022-11-18T03:44:00.279Z,99.90
2022-11-18T03:46:38.365Z,99.90
2022-11-18T03:49:08.074Z,99.90
2022-11-18T03:51:46.358Z,99.90
2022-11-18T03:54:20.659Z,99.90
2022-11-18T03:56:54.850Z,99.90
2022-11-18T03:59:27.818Z,99.90
2022-11-18T04:02:04.828Z,99.90
2022-11-18T04:04:32.441Z,99.90
2022-11-18T04:07:29.453Z,99.90
2022-11-18T04:10:51.942Z,99.90
2022-11-18T04:13:30.213Z,99.90
2022-11-18T04:15:57.535Z,99.90
2022-11-18T04:18:24.910Z,99.90
2022-11-18T04:20:52.066Z,99.90
2022-11-18T04:23:19.406Z,99.90
2022-11-18T04:25:46.436Z,99.90
2022-11-18T04:28:13.524Z,99.90
2022-11-18T04:30:40.542Z,99.90
2022-11-18T04:33:07.670Z,99.90
2022-11-18T04:35:34.686Z,99.90
2022-11-18T04:38:01.716Z,99.90
2022-11-18T04:40:28.755Z,99.90
2022-11-18T04:42:55.742Z,99.90
2022-11-18T04:45:22.890Z,99.90
2022-11-18T04:47:50.012Z,99.90
2022-11-18T04:50:17.292Z,99.90
2022-11-18T04:52:44.325Z,99.90
2022-11-18T04:55:11.383Z,99.90
2022-11-18T04:57:38.445Z,99.90
2022-11-18T05:00:06.668Z,99.90
2022-11-18T05:02:33.681Z,99.90
2022-11-18T05:05:00.718Z,99.90
2022-11-18T05:07:27.775Z,99.90
2022-11-18T05:09:55.076Z,99.90
2022-11-18T05:12:40.740Z,99.90
2022-11-18T05:15:08.309Z,99.90
2022-11-18T05:17:36.044Z,99.90
2022-11-18T05:20:03.315Z,99.90
2022-11-18T05:22:30.353Z,99.90
2022-11-18T05:24:57.444Z,99.90
2022-11-18T05:27:24.643Z,99.90
2022-11-18T05:29:51.751Z,99.90
2022-11-18T05:32:19.255Z,99.90
2022-11-18T05:34:46.595Z,99.90
2022-11-18T05:37:13.795Z,99.90
2022-11-18T05:39:40.923Z,99.90
2022-11-18T05:42:26.693Z,99.90
2022-11-18T05:44:58.176Z,99.90
2022-11-18T05:47:26.406Z,99.90
2022-11-18T05:49:53.429Z,99.90
2022-11-18T05:52:20.539Z,99.90
2022-11-18T05:54:50.252Z,99.90
2022-11-18T05:57:17.447Z,99.90
2022-11-18T05:59:44.442Z,99.90
2022-11-18T06:02:19.263Z,99.90
2022-11-18T06:04:54.965Z,99.90
2022-11-18T06:07:28.205Z,99.90
2022-11-18T06:10:03.711Z,99.90
2022-11-18T06:12:37.472Z,99.90
2022-11-18T06:15:12.177Z,99.90
2022-11-18T06:17:54.752Z,99.90
2022-11-18T06:20:22.374Z,99.90
2022-11-18T06:22:52.410Z,99.90
2022-11-18T06:25:19.731Z,99.90
2022-11-18T06:27:48.474Z,99.90
2022-11-18T06:30:15.732Z,99.90
2022-11-18T06:32:45.536Z,99.90
2022-11-18T06:35:12.661Z,99.90
2022-11-18T06:37:39.766Z,99.90
2022-11-18T06:40:07.893Z,99.90
2022-11-18T06:42:53.703Z,99.90
2022-11-18T06:45:20.878Z,99.90
2022-11-18T06:47:48.005Z,99.90
2022-11-18T06:50:15.215Z,99.90
2022-11-18T06:52:42.330Z,99.90
2022-11-18T06:55:09.737Z,99.90
2022-11-18T06:57:36.789Z,99.90
2022-11-18T07:00:04.940Z,99.90
2022-11-18T07:02:31.998Z,99.90
2022-11-18T07:04:59.024Z,99.90
2022-11-18T07:07:26.322Z,99.90
2022-11-18T07:09:53.361Z,99.90
2022-11-18T07:12:20.534Z,99.90
2022-11-18T07:14:47.742Z,99.90
2022-11-18T07:17:14.857Z,99.90
2022-11-18T07:19:41.879Z,99.90
2022-11-18T07:22:08.962Z,99.90
2022-11-18T07:24:36.023Z,99.90
2022-11-18T07:27:03.079Z,99.90
2022-11-18T07:29:30.167Z,99.90
2022-11-18T07:31:57.298Z,99.90
2022-11-18T07:34:24.334Z,99.90
2022-11-18T07:36:51.495Z,99.90
2022-11-18T07:39:18.731Z,99.90
2022-11-18T07:41:45.971Z,99.90
2022-11-18T07:44:14.030Z,99.90
2022-11-18T07:46:41.510Z,99.90
2022-11-18T07:49:09.387Z,99.90
2022-11-18T07:51:39.872Z,99.90
2022-11-18T07:54:11.881Z,99.90
2022-11-18T07:56:39.286Z,99.90
2022-11-18T07:59:06.606Z,99.90
2022-11-18T08:01:33.754Z,99.90
2022-11-18T08:04:12.249Z,99.90
2022-11-18T08:06:39.808Z,99.90
2022-11-18T08:09:08.028Z,99.90
2022-11-18T08:11:35.276Z,99.90
2022-11-18T08:14:02.391Z,99.90
2022-11-18T08:16:29.610Z,99.90
2022-11-18T08:18:58.519Z,99.90
2022-11-18T08:21:25.583Z,99.90
2022-11-18T08:23:54.597Z,99.90
2022-11-18T08:26:22.234Z,99.90
2022-11-18T08:28:49.682Z,99.90
2022-11-18T08:31:22.840Z,99.90
2022-11-18T08:33:54.337Z,99.90
2022-11-18T08:36:23.860Z,99.90
2022-11-18T08:38:51.134Z,99.90
2022-11-18T08:41:25.005Z,99.90
2022-11-18T08:43:52.220Z,99.90
2022-11-18T08:46:20.105Z,99.90
2022-11-18T08:48:47.308Z,99.90
2022-11-18T08:51:15.783Z,99.90
2022-11-18T08:53:42.997Z,99.90
2022-11-18T08:56:16.238Z,99.90
2022-11-18T08:58:44.020Z,99.90
2022-11-18T09:01:11.947Z,99.90
2022-11-18T09:03:39.234Z,99.90
2022-11-18T09:06:22.939Z,99.90
2022-11-18T09:08:50.084Z,99.90
2022-11-18T09:11:23.050Z,99.90
2022-11-18T09:16:45.718Z,99.90
2022-11-18T09:19:40.194Z,99.90
2022-11-18T09:21:59.980Z,99.90
2022-11-18T09:24:27.809Z,99.90
2022-11-18T09:26:54.859Z,99.90
2022-11-18T09:29:25.987Z,99.90
2022-11-18T09:31:54.523Z,99.90
2022-11-18T09:34:22.265Z,99.90
2022-11-18T09:36:49.776Z,99.90
2022-11-18T09:39:17.217Z,99.90
2022-11-18T09:41:54.089Z,99.90
2022-11-18T09:45:12.872Z,99.90
2022-11-18T09:47:41.164Z,99.90
2022-11-18T09:50:47.029Z,99.90
2022-11-18T09:53:22.703Z,99.90
2022-11-18T09:55:51.463Z,99.90
2022-11-18T09:58:38.784Z,99.90
2022-11-18T10:01:14.099Z,99.90
2022-11-18T10:03:41.729Z,99.90
2022-11-18T10:06:37.979Z,99.90
2022-11-18T10:09:30.473Z,99.90
2022-11-18T10:13:01.905Z,99.90
2022-11-18T10:15:48.295Z,99.90
2022-11-18T10:18:59.920Z,99.90
2022-11-18T10:21:46.579Z,99.90
2022-11-18T10:24:25.695Z,99.90
2022-11-18T10:27:00.688Z,99.90
2022-11-18T10:29:27.859Z,99.90
2022-11-18T10:32:12.033Z,99.90
2022-11-18T10:34:58.916Z,99.90
2022-11-18T10:40:29.042Z,99.90
2022-11-18T10:42:56.561Z,99.90
2022-11-18T10:45:32.398Z,99.90
2022-11-18T10:48:17.470Z,99.90
2022-11-18T10:50:51.900Z,99.90
2022-11-18T10:53:37.051Z,99.90
2022-11-18T10:56:11.432Z,99.90
2022-11-18T10:58:49.937Z,99.90
2022-11-18T11:01:24.891Z,99.90
2022-11-18T11:04:18.957Z,99.90
2022-11-18T11:06:46.389Z,99.90
2022-11-18T11:09:34.708Z,99.90
2022-11-18T11:12:17.136Z,99.90
2022-11-18T11:14:53.519Z,99.90
2022-11-18T11:17:34.605Z,99.90
2022-11-18T11:20:31.054Z,99.90
2022-11-18T11:22:58.553Z,99.90
2022-11-18T11:28:56.495Z,99.90
2022-11-18T11:32:01.811Z,99.90
2022-11-18T11:35:20.196Z,99.90
2022-11-18T11:38:40.609Z,99.90
2022-11-18T11:41:23.578Z,99.90
2022-11-18T11:44:25.479Z,99.90
2022-11-18T12:11:49.632Z,99.90
2022-11-18T12:14:45.592Z,99.90
2022-11-18T12:17:38.405Z,99.90
2022-11-18T12:20:41.609Z,99.90
2022-11-18T12:23:22.960Z,99.90
2022-11-18T12:26:13.901Z,99.90
2022-11-18T12:28:42.764Z,99.90
2022-11-18T12:31:38.839Z,99.90
2022-11-18T12:34:32.922Z,99.90
2022-11-18T12:37:46.115Z,99.90
2022-11-18T12:40:52.530Z,99.90
2022-11-18T12:44:05.966Z,99.90
2022-11-18T12:46:52.780Z,99.90
2022-11-18T12:50:00.462Z,99.90
2022-11-18T12:52:47.621Z,99.90
2022-11-18T12:55:25.202Z,99.90
2022-11-18T12:57:52.428Z,99.90
2022-11-18T13:00:29.751Z,99.90
2022-11-18T13:02:59.735Z,99.90
2022-11-18T13:05:33.391Z,99.90
2022-11-18T13:08:13.587Z,99.90
2022-11-18T13:11:18.030Z,99.90
2022-11-18T13:13:46.189Z,99.90
2022-11-18T13:16:43.362Z,99.90
2022-11-18T13:19:20.921Z,99.90
2022-11-18T13:22:15.776Z,99.90
2022-11-18T13:25:00.732Z,99.90
2022-11-18T13:28:11.870Z,99.90
2022-11-18T13:31:03.757Z,99.90
2022-11-18T13:33:40.199Z,99.90
2022-11-18T13:36:25.524Z,99.90
2022-11-18T13:39:05.101Z,99.90
2022-11-18T13:41:34.819Z,99.90
2022-11-18T13:44:24.438Z,99.90
2022-11-18T13:47:19.895Z,99.90
2022-11-18T13:49:53.703Z,99.90
2022-11-18T13:52:41.229Z,99.90
2022-11-18T13:55:33.903Z,99.90
2022-11-18T13:58:26.174Z,99.90
2022-11-18T14:01:02.237Z,99.90
2022-11-18T14:04:03.803Z,99.90
2022-11-18T14:06:39.936Z,99.90
2022-11-18T14:09:30.802Z,99.90
2022-11-18T14:12:29.192Z,99.90
2022-11-18T14:15:22.623Z,99.90
2022-11-18T14:18:00.554Z,99.90
2022-11-18T14:20:29.940Z,99.90
2022-11-18T14:23:01.687Z,99.90
2022-11-18T14:25:35.472Z,99.90
2022-11-18T14:28:38.180Z,99.90
2022-11-18T14:31:40.653Z,99.90
2022-11-18T14:34:39.896Z,99.90
2022-11-18T14:37:14.602Z,99.90
2022-11-18T14:39:41.862Z,99.90
2022-11-18T14:42:14.666Z,99.90
2022-11-18T14:44:41.795Z,97.30
2022-11-18T14:47:28.298Z,93.90
2022-11-18T14:49:56.139Z,86.80
2022-11-18T14:52:23.140Z,80.60
2022-11-18T14:54:50.319Z,84.80
2022-11-18T14:57:19.100Z,88.20
2022-11-18T14:59:46.275Z,92.00
2022-11-18T15:02:15.975Z,96.50
2022-11-18T15:04:43.340Z,95.30
2022-11-18T15:07:18.495Z,98.50
2022-11-18T15:09:50.884Z,99.90
2022-11-18T15:12:17.937Z,99.90
2022-11-18T15:14:45.190Z,99.90
2022-11-18T15:17:13.395Z,99.90
2022-11-18T15:19:43.573Z,99.90
2022-11-18T15:22:10.860Z,99.90
2022-11-18T15:24:38.020Z,99.90
2022-11-18T15:27:05.757Z,99.90
2022-11-18T15:29:32.957Z,99.90
2022-11-18T15:32:00.349Z,99.90
2022-11-18T15:34:27.424Z,99.90
2022-11-18T15:36:54.572Z,99.90
2022-11-18T15:39:21.872Z,99.90
2022-11-18T15:41:49.140Z,99.90
2022-11-18T15:44:16.826Z,99.90
2022-11-18T15:46:48.221Z,99.90
2022-11-18T15:49:17.630Z,99.90
2022-11-18T15:51:44.751Z,99.90
2022-11-18T15:54:11.841Z,99.90
2022-11-18T15:56:40.040Z,99.90
2022-11-18T15:59:12.131Z,99.90
2022-11-18T16:01:41.639Z,99.90
2022-11-18T16:04:10.875Z,99.90
2022-11-18T16:06:38.575Z,99.90
2022-11-18T16:09:06.526Z,99.90
2022-11-18T16:12:03.515Z,99.90
2022-11-18T16:14:30.591Z,99.90
2022-11-18T16:16:57.825Z,99.90
2022-11-18T16:19:26.975Z,99.90
2022-11-18T16:21:57.078Z,99.90
2022-11-18T16:24:26.576Z,99.90
2022-11-18T16:26:54.063Z,99.90
2022-11-18T16:29:21.430Z,99.90
2022-11-18T16:31:54.769Z,99.90
2022-11-18T16:34:28.609Z,99.90
2022-11-18T16:36:57.953Z,99.90
2022-11-18T16:39:27.192Z,99.90
2022-11-18T16:42:06.756Z,99.90
2022-11-18T16:44:35.574Z,99.90
2022-11-18T16:47:03.741Z,99.90
2022-11-18T16:49:32.566Z,99.90
2022-11-18T16:51:59.890Z,99.90
2022-11-18T16:54:31.907Z,99.90
2022-11-18T16:56:59.943Z,99.90
2022-11-18T16:59:29.223Z,99.90
2022-11-18T17:01:58.272Z,99.90
2022-11-18T17:04:26.800Z,99.90
2022-11-18T17:06:54.312Z,99.90
2022-11-18T17:09:24.452Z,99.90
2022-11-18T17:11:53.288Z,99.90
2022-11-18T17:14:21.814Z,99.90
2022-11-18T17:16:49.772Z,99.90
2022-11-18T17:19:19.390Z,99.90
2022-11-18T17:21:46.793Z,99.90
2022-11-18T17:24:15.289Z,99.90
2022-11-18T17:26:42.702Z,99.90
2022-11-18T17:29:11.779Z,99.90
2022-11-18T17:31:40.197Z,99.90
2022-11-18T17:34:13.990Z,99.90
2022-11-18T17:36:41.946Z,99.90
2022-11-18T17:39:11.008Z,99.90
2022-11-18T17:41:57.031Z,99.90
2022-11-18T17:44:24.742Z,99.90
2022-11-18T17:46:51.935Z,99.90
2022-11-18T17:49:21.450Z,99.90
2022-11-18T17:51:48.905Z,99.90
2022-11-18T17:54:16.420Z,99.90
2022-11-18T17:56:43.742Z,99.90
2022-11-18T17:59:11.036Z,99.90
2022-11-18T18:01:38.162Z,99.90
2022-11-18T18:04:05.502Z,99.90
2022-11-18T18:06:32.541Z,99.90
2022-11-18T18:08:59.758Z,99.90
2022-11-18T18:11:28.117Z,99.90
2022-11-18T18:14:13.616Z,99.90
2022-11-18T18:16:43.423Z,99.90
2022-11-18T18:19:12.955Z,99.90
2022-11-18T18:21:40.771Z,99.90
2022-11-18T18:24:08.557Z,99.90
2022-11-18T18:26:36.279Z,99.90
2022-11-18T18:29:04.029Z,99.90
2022-11-18T18:31:35.343Z,99.90
2022-11-18T18:34:02.701Z,99.90
2022-11-18T18:36:29.836Z,99.90
2022-11-18T18:38:58.180Z,99.90
2022-11-18T18:41:25.393Z,99.90
2022-11-18T18:43:52.487Z,99.90
2022-11-18T18:46:33.775Z,99.90
2022-11-18T18:49:13.418Z,99.90
2022-11-18T18:51:45.587Z,99.90
2022-11-18T18:54:20.133Z,99.90
2022-11-18T18:56:47.564Z,99.90
2022-11-18T18:59:14.708Z,99.90
2022-11-18T19:01:41.876Z,99.90
2022-11-18T19:04:13.670Z,99.90
2022-11-18T19:06:59.718Z,99.90
2022-11-18T19:09:27.533Z,99.90
2022-11-18T19:12:13.069Z,99.90
2022-11-18T19:14:40.588Z,99.90
2022-11-18T19:17:12.470Z,99.90
2022-11-18T19:20:01.918Z,99.90
2022-11-18T19:22:31.395Z,99.90
2022-11-18T19:24:59.918Z,99.90
2022-11-18T19:27:27.746Z,99.90
2022-11-18T19:29:55.212Z,99.90
2022-11-18T19:32:22.555Z,99.90
2022-11-18T19:34:49.842Z,99.90
2022-11-18T19:37:16.939Z,99.90
2022-11-18T19:39:44.024Z,99.90
2022-11-18T19:42:11.305Z,99.90
2022-11-18T19:44:39.085Z,99.90
2022-11-18T19:47:06.243Z,99.90
2022-11-18T19:49:33.604Z,99.90
2022-11-18T19:52:00.675Z,99.90
2022-11-18T19:54:27.878Z,99.90
2022-11-18T19:56:55.080Z,99.90
2022-11-18T19:59:22.306Z,99.90
2022-11-18T20:01:49.663Z,99.90
2022-11-18T20:04:16.993Z,99.90
2022-11-18T20:06:44.334Z,99.90
2022-11-18T20:09:11.849Z,99.90
2022-11-18T20:11:44.582Z,99.90
2022-11-18T20:14:12.639Z,99.90
2022-11-18T20:16:40.677Z,99.90
2022-11-18T20:19:10.580Z,99.90
2022-11-18T20:21:39.166Z,99.90
2022-11-18T20:24:08.047Z,99.90
2022-11-18T20:26:40.041Z,99.90
2022-11-18T20:29:08.278Z,99.90
2022-11-18T20:31:36.827Z,99.90
2022-11-18T20:34:04.897Z,99.90
2022-11-18T20:36:36.497Z,99.90
2022-11-18T20:39:22.231Z,99.90
2022-11-18T20:42:08.322Z,99.90
2022-11-18T20:44:35.443Z,99.90
2022-11-18T20:47:02.443Z,99.90
2022-11-18T20:49:29.515Z,99.90
2022-11-18T20:51:56.681Z,99.90
2022-11-18T20:54:23.703Z,99.90
2022-11-18T20:56:50.792Z,99.90
2022-11-18T20:59:18.207Z,99.90
2022-11-18T21:01:45.594Z,99.90
2022-11-18T21:04:12.783Z,99.90
2022-11-18T21:06:39.925Z,99.90
2022-11-18T21:09:07.909Z,99.90
2022-11-18T21:11:35.800Z,99.90
2022-11-18T21:14:23.806Z,99.90
2022-11-18T21:17:00.543Z,99.90
2022-11-18T21:19:28.404Z,99.90
2022-11-18T21:21:56.723Z,99.90
2022-11-18T21:24:32.154Z,99.90
2022-11-18T21:27:00.273Z,99.90
2022-11-18T21:29:29.197Z,99.90
2022-11-18T21:31:58.270Z,99.90
2022-11-18T21:34:25.411Z,99.90
2022-11-18T21:36:54.952Z,99.90
2022-11-18T21:39:23.929Z,99.90
2022-11-18T21:41:55.676Z,99.90
2022-11-18T21:44:24.898Z,99.90
2022-11-18T21:46:52.118Z,99.90
2022-11-18T21:49:19.654Z,99.90
2022-11-18T21:51:46.993Z,99.90
2022-11-18T21:54:16.004Z,99.90
2022-11-18T21:56:43.317Z,99.90
2022-11-18T21:59:10.415Z,99.90
2022-11-18T22:01:37.568Z,99.90
2022-11-18T22:04:05.750Z,99.90
2022-11-18T22:06:34.579Z,99.90
2022-11-18T22:09:03.429Z,99.90
2022-11-18T22:11:30.751Z,99.90
2022-11-18T22:14:08.126Z,99.90
2022-11-18T22:16:35.264Z,99.90
2022-11-18T22:19:07.836Z,99.90
2022-11-18T22:21:35.378Z,99.90
2022-11-18T22:24:02.394Z,99.90
2022-11-18T22:26:29.762Z,99.90
2022-11-18T22:28:58.253Z,99.90
2022-11-18T22:31:27.123Z,99.90
2022-11-18T22:33:55.575Z,99.90
2022-11-18T22:36:25.200Z,99.90
2022-11-18T22:38:53.035Z,99.90
2022-11-18T22:41:44.050Z,99.90
2022-11-18T22:44:12.487Z,99.90
2022-11-18T22:46:40.564Z,99.90
2022-11-18T22:49:08.771Z,99.90
2022-11-18T22:51:37.252Z,99.90
2022-11-18T22:54:36.458Z,99.90
2022-11-18T22:56:54.304Z,99.90
2022-11-18T22:59:21.861Z,99.90
2022-11-18T23:01:53.728Z,99.90
2022-11-18T23:04:20.987Z,99.90
2022-11-18T23:06:51.036Z,99.90
2022-11-18T23:09:18.396Z,99.90
2022-11-18T23:12:12.017Z,99.90
2022-11-18T23:14:39.201Z,99.90
2022-11-18T23:17:06.369Z,99.90
2022-11-18T23:19:33.431Z,99.90
2022-11-18T23:22:00.478Z,99.90
2022-11-18T23:24:27.551Z,99.90
2022-11-18T23:26:54.639Z,99.90
2022-11-18T23:29:22.100Z,99.90
2022-11-18T23:31:49.442Z,99.90
2022-11-18T23:34:17.222Z,99.90
2022-11-18T23:36:44.376Z,99.90
2022-11-18T23:39:12.180Z,99.90
2022-11-18T23:41:40.113Z,99.90
2022-11-18T23:44:07.223Z,99.90
2022-11-18T23:46:34.611Z,99.90
2022-11-18T23:49:01.794Z,99.90
2022-11-18T23:51:28.883Z,99.90
2022-11-18T23:53:57.426Z,99.90
2022-11-18T23:56:26.667Z,99.90
2022-11-18T23:58:55.891Z,99.90
